sensor_id;sensor_type;location;lat;lon;timestamp;pressure;altitude;pressure_sealevel;temperature
71081;BMP180;58740;50.672;18.690;2024-01-15T00:02:12;97078.60;;;1.10
71081;BMP180;58740;50.672;18.690;2024-01-15T00:04:45;97081.20;;;1.10
71081;BMP180;58740;50.672;18.690;2024-01-15T00:07:18;97083.20;;;1.06
71081;BMP180;58740;50.672;18.690;2024-01-15T00:09:52;97073.80;;;1.00
71081;BMP180;58740;50.672;18.690;2024-01-15T00:12:25;97075.40;;;1.00
71081;BMP180;58740;50.672;18.690;2024-01-15T00:14:58;97070.40;;;1.00
71081;BMP180;58740;50.672;18.690;2024-01-15T00:17:31;97066.80;;;1.00
71081;BMP180;58740;50.672;18.690;2024-01-15T00:20:07;97055.00;;;1.00
71081;BMP180;58740;50.672;18.690;2024-01-15T00:22:40;97060.40;;;1.00
71081;BMP180;58740;50.672;18.690;2024-01-15T00:25:14;97056.60;;;1.00
71081;BMP180;58740;50.672;18.690;2024-01-15T00:27:47;97050.80;;;1.00
71081;BMP180;58740;50.672;18.690;2024-01-15T00:30:20;97054.40;;;1.00
71081;BMP180;58740;50.672;18.690;2024-01-15T00:32:54;97051.60;;;1.00
71081;BMP180;58740;50.672;18.690;2024-01-15T00:35:28;97057.80;;;1.00
71081;BMP180;58740;50.672;18.690;2024-01-15T00:38:01;97046.60;;;0.98
71081;BMP180;58740;50.672;18.690;2024-01-15T00:40:34;97039.20;;;0.90
71081;BMP180;58740;50.672;18.690;2024-01-15T00:43:08;97039.20;;;0.90
71081;BMP180;58740;50.672;18.690;2024-01-15T00:45:41;97037.80;;;0.90
71081;BMP180;58740;50.672;18.690;2024-01-15T00:48:14;97026.00;;;0.90
71081;BMP180;58740;50.672;18.690;2024-01-15T00:50:48;97024.60;;;0.88
71081;BMP180;58740;50.672;18.690;2024-01-15T00:53:21;97011.80;;;0.80
71081;BMP180;58740;50.672;18.690;2024-01-15T00:55:55;97013.80;;;0.80
71081;BMP180;58740;50.672;18.690;2024-01-15T00:58:28;97011.80;;;0.84
71081;BMP180;58740;50.672;18.690;2024-01-15T01:01:01;97001.20;;;0.90
71081;BMP180;58740;50.672;18.690;2024-01-15T01:03:35;97007.20;;;0.90
71081;BMP180;58740;50.672;18.690;2024-01-15T01:06:08;97001.40;;;0.90
71081;BMP180;58740;50.672;18.690;2024-01-15T01:08:42;97005.40;;;0.90
71081;BMP180;58740;50.672;18.690;2024-01-15T01:11:17;96998.20;;;0.90
71081;BMP180;58740;50.672;18.690;2024-01-15T01:13:50;96986.60;;;0.90
71081;BMP180;58740;50.672;18.690;2024-01-15T01:16:23;96988.20;;;0.86
71081;BMP180;58740;50.672;18.690;2024-01-15T01:18:56;96982.40;;;0.80
71081;BMP180;58740;50.672;18.690;2024-01-15T01:21:30;96978.00;;;0.84
71081;BMP180;58740;50.672;18.690;2024-01-15T01:24:03;96972.60;;;0.90
71081;BMP180;58740;50.672;18.690;2024-01-15T01:26:37;96973.40;;;0.90
71081;BMP180;58740;50.672;18.690;2024-01-15T01:29:10;96960.60;;;0.90
71081;BMP180;58740;50.672;18.690;2024-01-15T01:31:46;96962.00;;;0.90
71081;BMP180;58740;50.672;18.690;2024-01-15T01:34:20;96965.40;;;0.90
71081;BMP180;58740;50.672;18.690;2024-01-15T01:36:53;96956.80;;;0.94
71081;BMP180;58740;50.672;18.690;2024-01-15T01:39:26;96955.80;;;0.90
71081;BMP180;58740;50.672;18.690;2024-01-15T01:41:59;96953.80;;;0.90
71081;BMP180;58740;50.672;18.690;2024-01-15T01:44:33;96950.80;;;0.90
71081;BMP180;58740;50.672;18.690;2024-01-15T01:47:07;96943.00;;;0.90
71081;BMP180;58740;50.672;18.690;2024-01-15T01:49:41;96936.00;;;0.90
71081;BMP180;58740;50.672;18.690;2024-01-15T01:52:16;96936.20;;;0.80
71081;BMP180;58740;50.672;18.690;2024-01-15T01:54:49;96936.00;;;0.80
71081;BMP180;58740;50.672;18.690;2024-01-15T01:57:23;96937.20;;;0.90
71081;BMP180;58740;50.672;18.690;2024-01-15T01:59:56;96926.80;;;0.90
71081;BMP180;58740;50.672;18.690;2024-01-15T02:02:32;96926.40;;;0.90
71081;BMP180;58740;50.672;18.690;2024-01-15T02:05:07;96926.20;;;0.90
71081;BMP180;58740;50.672;18.690;2024-01-15T02:07:42;96917.60;;;0.90
71081;BMP180;58740;50.672;18.690;2024-01-15T02:10:16;96914.20;;;0.88
71081;BMP180;58740;50.672;18.690;2024-01-15T02:12:50;96913.80;;;0.80
71081;BMP180;58740;50.672;18.690;2024-01-15T02:15:23;96911.00;;;0.80
71081;BMP180;58740;50.672;18.690;2024-01-15T02:18:04;96907.60;;;0.80
71081;BMP180;58740;50.672;18.690;2024-01-15T02:20:39;96900.00;;;0.78
71081;BMP180;58740;50.672;18.690;2024-01-15T02:23:14;96894.00;;;0.80
71081;BMP180;58740;50.672;18.690;2024-01-15T02:25:48;96899.80;;;0.80
71081;BMP180;58740;50.672;18.690;2024-01-15T02:28:22;96900.00;;;0.80
71081;BMP180;58740;50.672;18.690;2024-01-15T02:30:55;96893.40;;;0.80
71081;BMP180;58740;50.672;18.690;2024-01-15T02:33:29;96890.80;;;0.80
71081;BMP180;58740;50.672;18.690;2024-01-15T02:36:02;96891.40;;;0.80
71081;BMP180;58740;50.672;18.690;2024-01-15T02:38:36;96883.60;;;0.80
71081;BMP180;58740;50.672;18.690;2024-01-15T02:41:09;96876.00;;;0.80
71081;BMP180;58740;50.672;18.690;2024-01-15T02:43:42;96872.80;;;0.80
71081;BMP180;58740;50.672;18.690;2024-01-15T02:46:15;96868.60;;;0.80
71081;BMP180;58740;50.672;18.690;2024-01-15T02:48:49;96874.80;;;0.76
71081;BMP180;58740;50.672;18.690;2024-01-15T02:51:23;96874.40;;;0.72
71081;BMP180;58740;50.672;18.690;2024-01-15T02:53:56;96870.00;;;0.78
71081;BMP180;58740;50.672;18.690;2024-01-15T02:56:29;96862.40;;;0.80
71081;BMP180;58740;50.672;18.690;2024-01-15T02:59:02;96865.00;;;0.80
71081;BMP180;58740;50.672;18.690;2024-01-15T03:01:36;96850.80;;;0.80
71081;BMP180;58740;50.672;18.690;2024-01-15T03:04:09;96851.20;;;0.80
71081;BMP180;58740;50.672;18.690;2024-01-15T03:06:42;96841.80;;;0.80
71081;BMP180;58740;50.672;18.690;2024-01-15T03:09:16;96838.00;;;0.80
71081;BMP180;58740;50.672;18.690;2024-01-15T03:11:49;96838.00;;;0.80
71081;BMP180;58740;50.672;18.690;2024-01-15T03:14:22;96830.40;;;0.76
71081;BMP180;58740;50.672;18.690;2024-01-15T03:16:57;96828.60;;;0.70
71081;BMP180;58740;50.672;18.690;2024-01-15T03:19:35;96829.40;;;0.70
71081;BMP180;58740;50.672;18.690;2024-01-15T03:22:09;96819.40;;;0.70
71081;BMP180;58740;50.672;18.690;2024-01-15T03:24:42;96823.80;;;0.70
71081;BMP180;58740;50.672;18.690;2024-01-15T03:27:15;96824.20;;;0.70
71081;BMP180;58740;50.672;18.690;2024-01-15T03:29:48;96816.00;;;0.70
71081;BMP180;58740;50.672;18.690;2024-01-15T03:32:22;96811.40;;;0.70
71081;BMP180;58740;50.672;18.690;2024-01-15T03:34:55;96808.60;;;0.70
71081;BMP180;58740;50.672;18.690;2024-01-15T03:37:28;96807.20;;;0.72
71081;BMP180;58740;50.672;18.690;2024-01-15T03:40:02;96806.40;;;0.72
71081;BMP180;58740;50.672;18.690;2024-01-15T03:42:35;96805.60;;;0.72
71081;BMP180;58740;50.672;18.690;2024-01-15T03:45:09;96801.80;;;0.70
71081;BMP180;58740;50.672;18.690;2024-01-15T03:47:43;96800.80;;;0.70
71081;BMP180;58740;50.672;18.690;2024-01-15T03:50:16;96798.80;;;0.70
71081;BMP180;58740;50.672;18.690;2024-01-15T03:52:50;96795.60;;;0.70
71081;BMP180;58740;50.672;18.690;2024-01-15T03:55:23;96794.00;;;0.70
71081;BMP180;58740;50.672;18.690;2024-01-15T03:57:56;96791.80;;;0.74
71081;BMP180;58740;50.672;18.690;2024-01-15T04:00:29;96792.00;;;0.80
71081;BMP180;58740;50.672;18.690;2024-01-15T04:03:03;96790.20;;;0.80
71081;BMP180;58740;50.672;18.690;2024-01-15T04:05:36;96779.60;;;0.70
71081;BMP180;58740;50.672;18.690;2024-01-15T04:08:09;96775.80;;;0.70
71081;BMP180;58740;50.672;18.690;2024-01-15T04:10:43;96776.20;;;0.70
71081;BMP180;58740;50.672;18.690;2024-01-15T04:13:16;96777.00;;;0.70
71081;BMP180;58740;50.672;18.690;2024-01-15T04:15:49;96774.40;;;0.70
71081;BMP180;58740;50.672;18.690;2024-01-15T04:18:23;96773.80;;;0.70
71081;BMP180;58740;50.672;18.690;2024-01-15T04:20:56;96776.20;;;0.70
71081;BMP180;58740;50.672;18.690;2024-01-15T04:23:29;96781.20;;;0.80
71081;BMP180;58740;50.672;18.690;2024-01-15T04:26:02;96787.00;;;0.80
71081;BMP180;58740;50.672;18.690;2024-01-15T04:28:36;96784.00;;;0.80
71081;BMP180;58740;50.672;18.690;2024-01-15T04:31:09;96774.20;;;0.76
71081;BMP180;58740;50.672;18.690;2024-01-15T04:33:43;96773.20;;;0.70
71081;BMP180;58740;50.672;18.690;2024-01-15T04:36:16;96778.60;;;0.70
71081;BMP180;58740;50.672;18.690;2024-01-15T04:38:50;96779.60;;;0.70
71081;BMP180;58740;50.672;18.690;2024-01-15T04:41:23;96781.00;;;0.68
71081;BMP180;58740;50.672;18.690;2024-01-15T04:43:57;96786.00;;;0.60
71081;BMP180;58740;50.672;18.690;2024-01-15T04:46:32;96784.00;;;0.62
71081;BMP180;58740;50.672;18.690;2024-01-15T04:49:06;96783.80;;;0.62
71081;BMP180;58740;50.672;18.690;2024-01-15T04:51:39;96779.20;;;0.68
71081;BMP180;58740;50.672;18.690;2024-01-15T04:54:13;96776.40;;;0.70
71081;BMP180;58740;50.672;18.690;2024-01-15T04:56:50;96765.80;;;0.70
71081;BMP180;58740;50.672;18.690;2024-01-15T04:59:23;96760.20;;;0.70
71081;BMP180;58740;50.672;18.690;2024-01-15T05:01:56;96757.40;;;0.64
71081;BMP180;58740;50.672;18.690;2024-01-15T05:04:29;96760.20;;;0.60
71081;BMP180;58740;50.672;18.690;2024-01-15T05:07:03;96766.00;;;0.60
71081;BMP180;58740;50.672;18.690;2024-01-15T05:09:36;96768.00;;;0.60
71081;BMP180;58740;50.672;18.690;2024-01-15T05:12:10;96756.80;;;0.60
71081;BMP180;58740;50.672;18.690;2024-01-15T05:14:44;96757.20;;;0.60
71081;BMP180;58740;50.672;18.690;2024-01-15T05:17:17;96762.00;;;0.60
71081;BMP180;58740;50.672;18.690;2024-01-15T05:19:51;96758.60;;;0.60
71081;BMP180;58740;50.672;18.690;2024-01-15T05:22:24;96760.00;;;0.68
71081;BMP180;58740;50.672;18.690;2024-01-15T05:24:57;96753.60;;;0.70
71081;BMP180;58740;50.672;18.690;2024-01-15T05:27:30;96756.40;;;0.70
71081;BMP180;58740;50.672;18.690;2024-01-15T05:30:05;96758.40;;;0.70
71081;BMP180;58740;50.672;18.690;2024-01-15T05:32:38;96754.80;;;0.76
71081;BMP180;58740;50.672;18.690;2024-01-15T05:35:12;96749.00;;;0.80
71081;BMP180;58740;50.672;18.690;2024-01-15T05:37:47;96749.60;;;0.80
71081;BMP180;58740;50.672;18.690;2024-01-15T05:40:20;96751.80;;;0.72
71081;BMP180;58740;50.672;18.690;2024-01-15T05:42:53;96758.00;;;0.70
71081;BMP180;58740;50.672;18.690;2024-01-15T05:45:29;96762.00;;;0.70
71081;BMP180;58740;50.672;18.690;2024-01-15T05:48:03;96757.80;;;0.70
71081;BMP180;58740;50.672;18.690;2024-01-15T05:50:37;96757.00;;;0.66
71081;BMP180;58740;50.672;18.690;2024-01-15T05:53:10;96752.60;;;0.60
71081;BMP180;58740;50.672;18.690;2024-01-15T05:55:43;96756.80;;;0.60
71081;BMP180;58740;50.672;18.690;2024-01-15T05:58:16;96753.40;;;0.60
71081;BMP180;58740;50.672;18.690;2024-01-15T06:00:50;96752.60;;;0.60
71081;BMP180;58740;50.672;18.690;2024-01-15T06:03:23;96757.60;;;0.58
71081;BMP180;58740;50.672;18.690;2024-01-15T06:05:57;96753.80;;;0.52
71081;BMP180;58740;50.672;18.690;2024-01-15T06:08:30;96750.80;;;0.50
71081;BMP180;58740;50.672;18.690;2024-01-15T06:11:03;96748.20;;;0.50
71081;BMP180;58740;50.672;18.690;2024-01-15T06:13:37;96738.60;;;0.50
71081;BMP180;58740;50.672;18.690;2024-01-15T06:16:16;96749.60;;;0.50
71081;BMP180;58740;50.672;18.690;2024-01-15T06:18:52;96744.00;;;0.50
71081;BMP180;58740;50.672;18.690;2024-01-15T06:21:25;96749.80;;;0.50
71081;BMP180;58740;50.672;18.690;2024-01-15T06:23:59;96738.80;;;0.50
71081;BMP180;58740;50.672;18.690;2024-01-15T06:26:32;96743.20;;;0.50
71081;BMP180;58740;50.672;18.690;2024-01-15T06:29:05;96748.80;;;0.50
71081;BMP180;58740;50.672;18.690;2024-01-15T06:31:38;96747.60;;;0.52
71081;BMP180;58740;50.672;18.690;2024-01-15T06:34:12;96735.00;;;0.58
71081;BMP180;58740;50.672;18.690;2024-01-15T06:36:45;96745.00;;;0.58
71081;BMP180;58740;50.672;18.690;2024-01-15T06:39:19;96742.80;;;0.60
71081;BMP180;58740;50.672;18.690;2024-01-15T06:41:52;96753.60;;;0.58
71081;BMP180;58740;50.672;18.690;2024-01-15T06:44:25;96751.60;;;0.60
71081;BMP180;58740;50.672;18.690;2024-01-15T06:46:59;96748.00;;;0.60
71081;BMP180;58740;50.672;18.690;2024-01-15T06:49:34;96756.60;;;0.60
71081;BMP180;58740;50.672;18.690;2024-01-15T06:52:08;96750.40;;;0.60
71081;BMP180;58740;50.672;18.690;2024-01-15T06:54:42;96764.40;;;0.60
71081;BMP180;58740;50.672;18.690;2024-01-15T06:57:15;96760.60;;;0.60
71081;BMP180;58740;50.672;18.690;2024-01-15T06:59:48;96766.20;;;0.60
71081;BMP180;58740;50.672;18.690;2024-01-15T07:02:21;96770.40;;;0.60
71081;BMP180;58740;50.672;18.690;2024-01-15T07:04:55;96763.60;;;0.60
71081;BMP180;58740;50.672;18.690;2024-01-15T07:07:28;96771.60;;;0.60
71081;BMP180;58740;50.672;18.690;2024-01-15T07:10:02;96766.20;;;0.60
71081;BMP180;58740;50.672;18.690;2024-01-15T07:12:36;96767.00;;;0.60
71081;BMP180;58740;50.672;18.690;2024-01-15T07:15:10;96775.60;;;0.60
71081;BMP180;58740;50.672;18.690;2024-01-15T07:17:44;96778.40;;;0.60
71081;BMP180;58740;50.672;18.690;2024-01-15T07:20:17;96779.80;;;0.60
71081;BMP180;58740;50.672;18.690;2024-01-15T07:22:51;96783.20;;;0.60
71081;BMP180;58740;50.672;18.690;2024-01-15T07:25:25;96792.80;;;0.60
71081;BMP180;58740;50.672;18.690;2024-01-15T07:27:59;96790.80;;;0.66
71081;BMP180;58740;50.672;18.690;2024-01-15T07:30:32;96798.20;;;0.70
71081;BMP180;58740;50.672;18.690;2024-01-15T07:33:06;96799.60;;;0.70
71081;BMP180;58740;50.672;18.690;2024-01-15T07:35:39;96800.40;;;0.70
71081;BMP180;58740;50.672;18.690;2024-01-15T07:38:13;96803.60;;;0.70
71081;BMP180;58740;50.672;18.690;2024-01-15T07:40:46;96806.20;;;0.70
71081;BMP180;58740;50.672;18.690;2024-01-15T07:43:21;96804.00;;;0.70
71081;BMP180;58740;50.672;18.690;2024-01-15T07:45:55;96811.00;;;0.70
71081;BMP180;58740;50.672;18.690;2024-01-15T07:48:30;96805.00;;;0.70
71081;BMP180;58740;50.672;18.690;2024-01-15T07:51:03;96818.40;;;0.70
71081;BMP180;58740;50.672;18.690;2024-01-15T07:53:36;96823.20;;;0.70
71081;BMP180;58740;50.672;18.690;2024-01-15T07:56:10;96825.60;;;0.74
71081;BMP180;58740;50.672;18.690;2024-01-15T07:58:43;96822.60;;;0.76
71081;BMP180;58740;50.672;18.690;2024-01-15T08:01:17;96812.80;;;0.80
71081;BMP180;58740;50.672;18.690;2024-01-15T08:03:50;96821.80;;;0.80
71081;BMP180;58740;50.672;18.690;2024-01-15T08:06:24;96821.20;;;0.80
71081;BMP180;58740;50.672;18.690;2024-01-15T08:08:57;96823.60;;;0.80
71081;BMP180;58740;50.672;18.690;2024-01-15T08:11:31;96828.40;;;0.80
71081;BMP180;58740;50.672;18.690;2024-01-15T08:14:04;96823.40;;;0.80
71081;BMP180;58740;50.672;18.690;2024-01-15T08:16:37;96828.80;;;0.80
71081;BMP180;58740;50.672;18.690;2024-01-15T08:19:10;96828.60;;;0.80
71081;BMP180;58740;50.672;18.690;2024-01-15T08:21:44;96832.20;;;0.80
71081;BMP180;58740;50.672;18.690;2024-01-15T08:24:18;96840.60;;;0.80
71081;BMP180;58740;50.672;18.690;2024-01-15T08:26:52;96837.80;;;0.80
71081;BMP180;58740;50.672;18.690;2024-01-15T08:29:25;96843.80;;;0.80
71081;BMP180;58740;50.672;18.690;2024-01-15T08:31:58;96841.80;;;0.80
71081;BMP180;58740;50.672;18.690;2024-01-15T08:34:32;96839.40;;;0.80
71081;BMP180;58740;50.672;18.690;2024-01-15T08:37:05;96846.20;;;0.86
71081;BMP180;58740;50.672;18.690;2024-01-15T08:39:39;96836.00;;;0.90
71081;BMP180;58740;50.672;18.690;2024-01-15T08:42:12;96832.00;;;0.90
71081;BMP180;58740;50.672;18.690;2024-01-15T08:44:45;96827.00;;;0.90
71081;BMP180;58740;50.672;18.690;2024-01-15T08:47:19;96830.20;;;0.90
71081;BMP180;58740;50.672;18.690;2024-01-15T08:49:52;96827.40;;;1.00
71081;BMP180;58740;50.672;18.690;2024-01-15T08:52:26;96824.20;;;1.00
71081;BMP180;58740;50.672;18.690;2024-01-15T08:54:59;96823.00;;;1.00
71081;BMP180;58740;50.672;18.690;2024-01-15T08:57:33;96824.80;;;1.08
71081;BMP180;58740;50.672;18.690;2024-01-15T09:00:09;96819.40;;;1.10
71081;BMP180;58740;50.672;18.690;2024-01-15T09:02:43;96824.00;;;1.10
71081;BMP180;58740;50.672;18.690;2024-01-15T09:05:17;96818.20;;;1.10
71081;BMP180;58740;50.672;18.690;2024-01-15T09:07:50;96817.60;;;1.18
71081;BMP180;58740;50.672;18.690;2024-01-15T09:10:24;96814.80;;;1.18
71081;BMP180;58740;50.672;18.690;2024-01-15T09:12:57;96821.00;;;1.20
71081;BMP180;58740;50.672;18.690;2024-01-15T09:15:30;96822.00;;;1.20
71081;BMP180;58740;50.672;18.690;2024-01-15T09:18:05;96816.80;;;1.20
71081;BMP180;58740;50.672;18.690;2024-01-15T09:20:39;96829.80;;;1.20
71081;BMP180;58740;50.672;18.690;2024-01-15T09:23:13;96828.60;;;1.20
71081;BMP180;58740;50.672;18.690;2024-01-15T09:25:46;96827.60;;;1.20
71081;BMP180;58740;50.672;18.690;2024-01-15T09:28:20;96823.00;;;1.20
71081;BMP180;58740;50.672;18.690;2024-01-15T09:30:54;96827.40;;;1.16
71081;BMP180;58740;50.672;18.690;2024-01-15T09:33:28;96830.40;;;1.10
71081;BMP180;58740;50.672;18.690;2024-01-15T09:36:05;96824.60;;;1.10
71081;BMP180;58740;50.672;18.690;2024-01-15T09:38:41;96828.20;;;1.10
71081;BMP180;58740;50.672;18.690;2024-01-15T09:41:14;96833.60;;;1.10
71081;BMP180;58740;50.672;18.690;2024-01-15T09:43:48;96819.80;;;1.10
71081;BMP180;58740;50.672;18.690;2024-01-15T09:46:22;96822.40;;;1.10
71081;BMP180;58740;50.672;18.690;2024-01-15T09:48:55;96816.60;;;1.10
71081;BMP180;58740;50.672;18.690;2024-01-15T09:51:29;96808.40;;;1.10
71081;BMP180;58740;50.672;18.690;2024-01-15T09:54:04;96807.80;;;1.20
71081;BMP180;58740;50.672;18.690;2024-01-15T09:56:38;96812.80;;;1.20
71081;BMP180;58740;50.672;18.690;2024-01-15T09:59:13;96809.20;;;1.20
71081;BMP180;58740;50.672;18.690;2024-01-15T10:01:48;96798.40;;;1.20
71081;BMP180;58740;50.672;18.690;2024-01-15T10:04:23;96808.00;;;1.20
71081;BMP180;58740;50.672;18.690;2024-01-15T10:06:57;96793.40;;;1.20
71081;BMP180;58740;50.672;18.690;2024-01-15T10:09:31;96789.60;;;1.20
71081;BMP180;58740;50.672;18.690;2024-01-15T10:12:05;96794.80;;;1.20
71081;BMP180;58740;50.672;18.690;2024-01-15T10:14:39;96791.40;;;1.20
71081;BMP180;58740;50.672;18.690;2024-01-15T10:17:16;96789.40;;;1.20
71081;BMP180;58740;50.672;18.690;2024-01-15T10:19:49;96783.00;;;1.20
71081;BMP180;58740;50.672;18.690;2024-01-15T10:22:23;96782.40;;;1.20
71081;BMP180;58740;50.672;18.690;2024-01-15T10:24:56;96788.20;;;1.20
71081;BMP180;58740;50.672;18.690;2024-01-15T10:27:30;96785.60;;;1.20
71081;BMP180;58740;50.672;18.690;2024-01-15T10:30:04;96788.20;;;1.20
71081;BMP180;58740;50.672;18.690;2024-01-15T10:32:38;96807.00;;;1.20
71081;BMP180;58740;50.672;18.690;2024-01-15T10:35:13;96800.80;;;1.20
71081;BMP180;58740;50.672;18.690;2024-01-15T10:37:48;96801.40;;;1.20
71081;BMP180;58740;50.672;18.690;2024-01-15T10:40:22;96795.60;;;1.20
71081;BMP180;58740;50.672;18.690;2024-01-15T10:42:56;96790.60;;;1.16
71081;BMP180;58740;50.672;18.690;2024-01-15T10:45:29;96789.40;;;1.18
71081;BMP180;58740;50.672;18.690;2024-01-15T10:48:03;96803.20;;;1.14
71081;BMP180;58740;50.672;18.690;2024-01-15T10:50:37;96794.80;;;1.10
71081;BMP180;58740;50.672;18.690;2024-01-15T10:53:13;96792.00;;;1.10
71081;BMP180;58740;50.672;18.690;2024-01-15T10:55:48;96791.40;;;1.10
71081;BMP180;58740;50.672;18.690;2024-01-15T10:58:24;96792.00;;;1.10
71081;BMP180;58740;50.672;18.690;2024-01-15T11:00:58;96801.60;;;1.10
71081;BMP180;58740;50.672;18.690;2024-01-15T11:03:33;96790.60;;;1.10
71081;BMP180;58740;50.672;18.690;2024-01-15T11:06:19;96792.40;;;1.10
71081;BMP180;58740;50.672;18.690;2024-01-15T11:08:53;96795.80;;;1.10
71081;BMP180;58740;50.672;18.690;2024-01-15T11:11:28;96786.40;;;1.12
71081;BMP180;58740;50.672;18.690;2024-01-15T11:14:01;96790.20;;;1.20
71081;BMP180;58740;50.672;18.690;2024-01-15T11:16:57;96782.60;;;1.20
71081;BMP180;58740;50.672;18.690;2024-01-15T11:19:43;96775.80;;;1.20
71081;BMP180;58740;50.672;18.690;2024-01-15T11:22:50;96785.00;;;1.20
71081;BMP180;58740;50.672;18.690;2024-01-15T11:25:23;96785.40;;;1.20
71081;BMP180;58740;50.672;18.690;2024-01-15T11:27:56;96788.00;;;1.20
71081;BMP180;58740;50.672;18.690;2024-01-15T11:30:30;96775.40;;;1.20
71081;BMP180;58740;50.672;18.690;2024-01-15T11:33:34;96772.80;;;1.20
71081;BMP180;58740;50.672;18.690;2024-01-15T11:36:08;96774.00;;;1.20
71081;BMP180;58740;50.672;18.690;2024-01-15T11:38:42;96774.20;;;1.20
71081;BMP180;58740;50.672;18.690;2024-01-15T11:41:17;96776.80;;;1.20
71081;BMP180;58740;50.672;18.690;2024-01-15T11:43:53;96776.00;;;1.20
71081;BMP180;58740;50.672;18.690;2024-01-15T11:46:32;96775.80;;;1.20
71081;BMP180;58740;50.672;18.690;2024-01-15T11:49:18;96777.60;;;1.20
71081;BMP180;58740;50.672;18.690;2024-01-15T11:51:59;96779.40;;;1.20
71081;BMP180;58740;50.672;18.690;2024-01-15T11:54:38;96785.60;;;1.20
71081;BMP180;58740;50.672;18.690;2024-01-15T11:57:25;96785.00;;;1.20
71081;BMP180;58740;50.672;18.690;2024-01-15T12:00:03;96785.20;;;1.20
71081;BMP180;58740;50.672;18.690;2024-01-15T12:02:37;96769.00;;;1.22
71081;BMP180;58740;50.672;18.690;2024-01-15T12:05:11;96772.00;;;1.30
71081;BMP180;58740;50.672;18.690;2024-01-15T12:07:47;96778.00;;;1.30
71081;BMP180;58740;50.672;18.690;2024-01-15T12:10:22;96768.40;;;1.30
71081;BMP180;58740;50.672;18.690;2024-01-15T12:13:07;96765.20;;;1.40
71081;BMP180;58740;50.672;18.690;2024-01-15T12:15:44;96755.60;;;1.40
71081;BMP180;58740;50.672;18.690;2024-01-15T12:18:19;96763.00;;;1.40
71081;BMP180;58740;50.672;18.690;2024-01-15T12:20:55;96769.80;;;1.40
71081;BMP180;58740;50.672;18.690;2024-01-15T12:23:28;96767.80;;;1.40
71081;BMP180;58740;50.672;18.690;2024-01-15T12:26:02;96761.40;;;1.40
71081;BMP180;58740;50.672;18.690;2024-01-15T12:28:35;96770.40;;;1.40
71081;BMP180;58740;50.672;18.690;2024-01-15T12:31:09;96767.60;;;1.40
71081;BMP180;58740;50.672;18.690;2024-01-15T12:33:43;96768.80;;;1.40
71081;BMP180;58740;50.672;18.690;2024-01-15T12:36:22;96756.00;;;1.40
71081;BMP180;58740;50.672;18.690;2024-01-15T12:39:00;96763.80;;;1.30
71081;BMP180;58740;50.672;18.690;2024-01-15T12:41:34;96759.20;;;1.32
71081;BMP180;58740;50.672;18.690;2024-01-15T12:44:08;96763.00;;;1.34
71081;BMP180;58740;50.672;18.690;2024-01-15T12:46:41;96752.80;;;1.40
71081;BMP180;58740;50.672;18.690;2024-01-15T12:49:15;96758.60;;;1.40
71081;BMP180;58740;50.672;18.690;2024-01-15T12:51:58;96761.00;;;1.40
71081;BMP180;58740;50.672;18.690;2024-01-15T12:54:31;96758.60;;;1.32
71081;BMP180;58740;50.672;18.690;2024-01-15T12:57:05;96764.60;;;1.32
71081;BMP180;58740;50.672;18.690;2024-01-15T12:59:38;96769.60;;;1.30
71081;BMP180;58740;50.672;18.690;2024-01-15T13:02:11;96776.20;;;1.30
71081;BMP180;58740;50.672;18.690;2024-01-15T13:04:45;96771.40;;;1.30
71081;BMP180;58740;50.672;18.690;2024-01-15T13:07:19;96781.00;;;1.30
71081;BMP180;58740;50.672;18.690;2024-01-15T13:09:52;96776.40;;;1.30
71081;BMP180;58740;50.672;18.690;2024-01-15T13:12:26;96769.80;;;1.30
71081;BMP180;58740;50.672;18.690;2024-01-15T13:15:01;96769.60;;;1.30
71081;BMP180;58740;50.672;18.690;2024-01-15T13:17:35;96777.40;;;1.30
71081;BMP180;58740;50.672;18.690;2024-01-15T13:20:11;96779.20;;;1.30
71081;BMP180;58740;50.672;18.690;2024-01-15T13:22:45;96781.00;;;1.30
71081;BMP180;58740;50.672;18.690;2024-01-15T13:25:19;96785.60;;;1.20
71081;BMP180;58740;50.672;18.690;2024-01-15T13:27:52;96781.40;;;1.20
71081;BMP180;58740;50.672;18.690;2024-01-15T13:30:26;96775.60;;;1.20
71081;BMP180;58740;50.672;18.690;2024-01-15T13:33:01;96779.80;;;1.20
71081;BMP180;58740;50.672;18.690;2024-01-15T13:35:37;96774.80;;;1.20
71081;BMP180;58740;50.672;18.690;2024-01-15T13:38:11;96773.20;;;1.20
71081;BMP180;58740;50.672;18.690;2024-01-15T13:40:44;96777.20;;;1.20
71081;BMP180;58740;50.672;18.690;2024-01-15T13:43:20;96772.60;;;1.20
71081;BMP180;58740;50.672;18.690;2024-01-15T13:45:53;96778.20;;;1.20
71081;BMP180;58740;50.672;18.690;2024-01-15T13:48:27;96777.20;;;1.20
71081;BMP180;58740;50.672;18.690;2024-01-15T13:51:01;96769.00;;;1.20
71081;BMP180;58740;50.672;18.690;2024-01-15T13:53:35;96781.40;;;1.20
71081;BMP180;58740;50.672;18.690;2024-01-15T13:56:12;96773.60;;;1.20
71081;BMP180;58740;50.672;18.690;2024-01-15T13:58:45;96771.20;;;1.20
71081;BMP180;58740;50.672;18.690;2024-01-15T14:01:20;96771.80;;;1.20
71081;BMP180;58740;50.672;18.690;2024-01-15T14:03:53;96763.80;;;1.20
71081;BMP180;58740;50.672;18.690;2024-01-15T14:06:27;96768.80;;;1.20
71081;BMP180;58740;50.672;18.690;2024-01-15T14:09:00;96771.80;;;1.20
71081;BMP180;58740;50.672;18.690;2024-01-15T14:11:36;96778.60;;;1.20
71081;BMP180;58740;50.672;18.690;2024-01-15T14:14:10;96778.20;;;1.20
71081;BMP180;58740;50.672;18.690;2024-01-15T14:16:44;96779.80;;;1.20
71081;BMP180;58740;50.672;18.690;2024-01-15T14:19:18;96773.80;;;1.18
71081;BMP180;58740;50.672;18.690;2024-01-15T14:21:53;96780.20;;;1.10
71081;BMP180;58740;50.672;18.690;2024-01-15T14:24:27;96776.60;;;1.10
71081;BMP180;58740;50.672;18.690;2024-01-15T14:27:01;96786.40;;;1.10
71081;BMP180;58740;50.672;18.690;2024-01-15T14:29:34;96785.00;;;1.10
71081;BMP180;58740;50.672;18.690;2024-01-15T14:32:08;96768.60;;;1.10
71081;BMP180;58740;50.672;18.690;2024-01-15T14:34:41;96770.80;;;1.10
71081;BMP180;58740;50.672;18.690;2024-01-15T14:37:15;96776.20;;;1.10
71081;BMP180;58740;50.672;18.690;2024-01-15T14:39:49;96773.40;;;1.10
71081;BMP180;58740;50.672;18.690;2024-01-15T14:42:23;96782.80;;;1.10
71081;BMP180;58740;50.672;18.690;2024-01-15T14:44:58;96780.80;;;1.10
71081;BMP180;58740;50.672;18.690;2024-01-15T14:47:32;96784.20;;;1.10
71081;BMP180;58740;50.672;18.690;2024-01-15T14:50:09;96789.00;;;1.10